»·PEaware :: SWA913 KRNO-KSJC

SWA913 :: KRNO-KSJC

FLIGHT INFORMATION

Flight Status: Arrived
Operator:
Southwest Airlines
More flights by this operator :: More flights under this callsign
Pilot: Pratham R. (19019)
Aircraft: BOEING 737-700
(B737)
More flights by this aircraft type
Origin: KRNO Reno/Tahoe Intl
United States
Destination: KSJC Mineta San Jose Intl
United States
More flights between these airports :: More routes between these airports
Route: ZEFFR6 DARBI STUBL RAZRR4
File this flight plan on PilotEdge
Remarks: RMK / SIMBRIEF
Altitude:
(Current/Filed)
37,000ft
Speed:
(Current/Filed)
455kts
Departed: 20-Apr-20 12:38 PM
Arrived: 20-Apr-20 01:22 PM
Distance/Time
Traveled:
163nm/0:44
Distance/Time
To Go:
Arrived

Flight Plot

Page will automatically refresh every two minutes.

Flight plan parsing failed; only flown route is shown


Map Options




Map Legend


Flown Route
Filed Route
Departure Airport
Arrival Airport
Navaid (VOR, NDB)
Fix

Horizontal Profiles

Position Reports

Time Latitude Longitude Heading Altitude Ground
Speed
20-Apr-20 11:59 39.503081 -119.773623 180 4423ft 0kts
20-Apr-20 12:00 39.503081 -119.773623 180 4423ft 0kts
20-Apr-20 12:01 39.503081 -119.773623 180 4423ft 0kts
20-Apr-20 12:02 39.503081 -119.773623 180 4423ft 0kts
20-Apr-20 12:03 39.503081 -119.773623 180 4423ft 0kts
20-Apr-20 12:04 39.503081 -119.773623 180 4423ft 0kts
20-Apr-20 12:05 39.503081 -119.773623 180 4423ft 0kts
20-Apr-20 12:06 39.503081 -119.773623 180 4423ft 0kts
20-Apr-20 12:07 39.503081 -119.773623 180 4423ft 0kts
20-Apr-20 12:08 39.503081 -119.773623 180 4423ft 0kts
20-Apr-20 12:09 39.503081 -119.773623 180 4423ft 0kts
20-Apr-20 12:10 39.503081 -119.773623 180 4423ft 0kts
20-Apr-20 12:11 39.503081 -119.773623 180 4423ft 0kts
20-Apr-20 12:12 39.503081 -119.773623 180 4423ft 0kts
20-Apr-20 12:13 39.503081 -119.773623 180 4423ft 0kts
20-Apr-20 12:14 39.503081 -119.773623 180 4423ft 0kts
20-Apr-20 12:15 39.503081 -119.773623 180 4423ft 0kts
20-Apr-20 12:16 39.503081 -119.773623 180 4423ft 0kts
20-Apr-20 12:17 39.503081 -119.773623 180 4423ft 0kts
20-Apr-20 12:18 39.503081 -119.773623 180 4423ft 0kts
20-Apr-20 12:18 39.503081 -119.773623 180 4423ft 0kts
20-Apr-20 12:20 39.503081 -119.773623 180 4423ft 0kts
20-Apr-20 12:21 39.503081 -119.773623 180 4423ft 0kts
20-Apr-20 12:21 39.503081 -119.773623 180 4423ft 0kts
20-Apr-20 12:22 39.503081 -119.773623 180 4423ft 0kts
20-Apr-20 12:23 39.503081 -119.773623 180 4423ft 0kts
20-Apr-20 12:25 39.503081 -119.773623 180 4423ft 0kts
20-Apr-20 12:25 39.503081 -119.773623 180 4423ft 0kts
20-Apr-20 12:26 39.503081 -119.773623 180 4423ft 0kts
20-Apr-20 12:27 39.503560 -119.773620 180 4423ft 0kts
20-Apr-20 12:28 39.503749 -119.773910 89 4423ft 0kts
20-Apr-20 12:29 39.503749 -119.773910 89 4423ft 0kts
20-Apr-20 12:30 39.503749 -119.773910 89 4423ft 0kts
20-Apr-20 12:31 39.503749 -119.773910 89 4423ft 0kts
20-Apr-20 12:32 39.503750 -119.773101 89 4423ft 10kts
20-Apr-20 12:33 39.504482 -119.771505 359 4423ft 15kts
20-Apr-20 12:34 39.509668 -119.771519 359 4423ft 19kts
20-Apr-20 12:35 39.513727 -119.770946 76 4423ft 7kts
20-Apr-20 12:36 39.512962 -119.769218 176 4423ft 5kts
20-Apr-20 12:37 39.509048 -119.769240 179 4423ft 92kts
20-Apr-20 12:38 39.463860 -119.767288 178 6517ft 198kts
20-Apr-20 12:39 39.393132 -119.770575 179 9073ft 286kts
20-Apr-20 12:40 39.308428 -119.769429 177 12782ft 326kts
20-Apr-20 12:41 39.215786 -119.765788 177 16945ft 347kts
20-Apr-20 12:42 39.116920 -119.762056 177 18881ft 359kts
20-Apr-20 12:43 39.017584 -119.758310 177 19142ft 360kts
20-Apr-20 12:44 38.917649 -119.754557 177 19144ft 360kts
20-Apr-20 12:45 38.815528 -119.750732 177 22369ft 376kts
20-Apr-20 12:46 38.708918 -119.746746 177 25552ft 394kts
20-Apr-20 12:47 38.597652 -119.742602 177 28399ft 409kts
20-Apr-20 12:48 38.482385 -119.738322 178 30902ft 424kts
20-Apr-20 12:49 38.365046 -119.733981 178 33861ft 420kts
20-Apr-20 12:50 38.249819 -119.741127 188 36537ft 415kts
20-Apr-20 12:51 38.134214 -119.765190 188 37152ft 430kts
20-Apr-20 12:52 38.017438 -119.788851 188 37168ft 425kts
20-Apr-20 12:53 37.900446 -119.812524 188 37180ft 426kts
20-Apr-20 12:54 37.784193 -119.835945 188 37200ft 424kts
20-Apr-20 12:55 37.667987 -119.859302 188 37204ft 424kts
20-Apr-20 12:56 37.550945 -119.882749 188 35524ft 426kts
20-Apr-20 12:57 37.435466 -119.905787 188 32811ft 422kts
20-Apr-20 12:58 37.321816 -119.947614 208 29250ft 431kts
20-Apr-20 12:59 37.239338 -120.046367 236 28075ft 418kts
20-Apr-20 13:00 37.203366 -120.180323 259 25655ft 402kts
20-Apr-20 13:01 37.188608 -120.315498 260 23336ft 382kts
20-Apr-20 13:02 37.174273 -120.445577 260 22200ft 388kts
20-Apr-20 13:03 37.159399 -120.579593 260 22153ft 384kts
20-Apr-20 13:04 37.144838 -120.709625 260 19992ft 375kts
20-Apr-20 13:05 37.130583 -120.836633 260 19180ft 372kts
20-Apr-20 13:06 37.116769 -120.961271 260 17014ft 361kts
20-Apr-20 13:07 37.103263 -121.081905 260 14812ft 338kts
20-Apr-20 13:08 37.106054 -121.197190 277 12782ft 325kts
20-Apr-20 13:09 37.118791 -121.306098 277 10777ft 311kts
20-Apr-20 13:10 37.130005 -121.404309 277 9996ft 264kts
20-Apr-20 13:11 37.139993 -121.494146 277 8675ft 258kts
20-Apr-20 13:12 37.149817 -121.582333 278 7378ft 247kts
20-Apr-20 13:13 37.158800 -121.663964 278 5923ft 226kts
20-Apr-20 13:14 37.182695 -121.730952 311 4572ft 200kts
20-Apr-20 13:15 37.220461 -121.775793 320 3816ft 182kts
20-Apr-20 13:16 37.256685 -121.813604 319 2688ft 147kts
20-Apr-20 13:17 37.286549 -121.847616 319 1932ft 141kts
20-Apr-20 13:18 37.315413 -121.878056 319 1190ft 133kts
20-Apr-20 13:19 37.341829 -121.907030 320 494ft 129kts
20-Apr-20 13:20 37.364959 -121.932338 319 70ft 42kts
20-Apr-20 13:21 37.368531 -121.932412 47 70ft 8kts
20-Apr-20 13:22 37.368209 -121.930111 139 70ft 16kts
20-Apr-20 13:23 37.365290 -121.926864 137 70ft 14kts
20-Apr-20 13:24 37.364248 -121.924847 49 70ft 2kts
20-Apr-20 13:25 37.364354 -121.924696 48 70ft 0kts
20-Apr-20 13:26 37.364354 -121.924696 48 70ft 0kts
20-Apr-20 13:27 37.364354 -121.924696 48 70ft 0kts
20-Apr-20 13:28 37.364354 -121.924696 48 70ft 0kts
20-Apr-20 13:29 37.364354 -121.924696 48 70ft 0kts
20-Apr-20 13:30 37.364354 -121.924696 48 70ft 0kts
20-Apr-20 13:31 37.364354 -121.924696 48 70ft 0kts
20-Apr-20 13:32 37.364354 -121.924696 48 70ft 0kts
20-Apr-20 13:33 37.364354 -121.924696 48 70ft 0kts
20-Apr-20 13:34 37.364354 -121.924696 48 70ft 0kts
20-Apr-20 13:35 37.364354 -121.924696 48 70ft 0kts

Navigation Log

Ident Type
Flight plan parsing failed, navigation log unavailable